createdAt,value
2019-05-30T00:00:17.486Z,2.80
2019-05-30T00:01:17.106Z,2.80
2019-05-30T00:02:22.632Z,3.20
2019-05-30T00:03:28.128Z,3.00
2019-05-30T00:04:33.673Z,2.50
2019-05-30T00:05:39.194Z,2.50
2019-05-30T00:06:44.674Z,2.60
2019-05-30T00:07:50.177Z,2.70
2019-05-30T00:08:56.340Z,2.40
2019-05-30T00:10:01.213Z,2.60
2019-05-30T00:11:06.717Z,2.70
2019-05-30T00:12:12.227Z,2.70
2019-05-30T00:13:17.753Z,2.70
2019-05-30T00:14:23.261Z,2.70
2019-05-30T00:15:28.757Z,2.60
2019-05-30T00:16:34.289Z,2.50
2019-05-30T00:17:39.791Z,2.60
2019-05-30T00:18:45.299Z,2.60
2019-05-30T00:19:50.962Z,3.00
2019-05-30T00:20:56.715Z,2.60
2019-05-30T00:22:03.730Z,2.60
2019-05-30T00:23:07.361Z,2.40
2019-05-30T00:24:12.872Z,2.70
2019-05-30T00:25:18.366Z,2.60
2019-05-30T00:26:23.877Z,2.40
2019-05-30T00:27:29.403Z,2.30
2019-05-30T00:28:34.905Z,2.70
2019-05-30T00:29:40.442Z,2.50
2019-05-30T00:30:45.930Z,2.40
2019-05-30T00:31:51.442Z,2.30
2019-05-30T00:32:57.320Z,2.80
2019-05-30T00:34:02.946Z,2.30
2019-05-30T00:35:07.979Z,2.30
2019-05-30T00:36:13.493Z,2.50
2019-05-30T00:37:19.005Z,2.40
2019-05-30T00:38:24.528Z,2.40
2019-05-30T00:39:30.028Z,2.30
2019-05-30T00:40:35.539Z,2.30
2019-05-30T00:41:41.063Z,2.10
2019-05-30T00:42:46.568Z,2.10
2019-05-30T00:43:52.077Z,2.30
2019-05-30T00:44:57.908Z,2.10
2019-05-30T00:46:04.117Z,2.20
2019-05-30T00:47:08.602Z,2.00
2019-05-30T00:48:14.119Z,2.10
2019-05-30T00:49:19.632Z,2.10
2019-05-30T00:50:25.147Z,1.80
2019-05-30T00:51:30.655Z,1.90
2019-05-30T00:52:36.178Z,1.90
2019-05-30T00:53:41.676Z,2.00
2019-05-30T00:54:47.189Z,1.90
2019-05-30T00:55:52.744Z,1.80
2019-05-30T00:56:58.593Z,2.10
2019-05-30T00:58:04.824Z,2.00
2019-05-30T00:59:09.244Z,1.90
2019-05-30T01:00:14.751Z,1.90
2019-05-30T01:01:20.275Z,2.10
2019-05-30T01:02:25.773Z,1.70
2019-05-30T01:03:31.280Z,1.80
2019-05-30T01:04:36.794Z,1.80
2019-05-30T01:05:42.334Z,1.80
2019-05-30T01:06:47.825Z,1.70
2019-05-30T01:07:53.333Z,1.80
2019-05-30T01:08:59.107Z,1.90
2019-05-30T01:10:05.225Z,1.90
2019-05-30T01:11:09.879Z,1.80
2019-05-30T01:12:15.386Z,1.70
2019-05-30T01:13:20.896Z,1.70
2019-05-30T01:14:26.412Z,1.80
2019-05-30T01:15:31.921Z,1.80
2019-05-30T01:16:37.434Z,2.00
2019-05-30T01:17:42.942Z,1.90
2019-05-30T01:18:48.456Z,1.80
2019-05-30T01:19:53.966Z,1.70
2019-05-30T01:20:59.477Z,1.80
2019-05-30T01:22:05.545Z,2.10
2019-05-30T01:23:10.504Z,1.70
2019-05-30T01:24:16.015Z,1.70
2019-05-30T01:25:21.535Z,2.00
2019-05-30T01:26:27.045Z,1.90
2019-05-30T01:27:32.558Z,2.00
2019-05-30T01:28:38.071Z,1.90
2019-05-30T01:29:43.579Z,1.90
2019-05-30T01:30:59.648Z,1.70
2019-05-30T01:31:54.604Z,1.80
2019-05-30T01:33:00.123Z,1.90
2019-05-30T01:34:05.904Z,1.90
2019-05-30T01:35:11.150Z,1.80
2019-05-30T01:36:16.650Z,1.80
2019-05-30T01:37:22.171Z,1.80
2019-05-30T01:38:27.678Z,1.70
2019-05-30T01:39:33.187Z,1.70
2019-05-30T01:40:38.736Z,2.10
2019-05-30T01:41:44.222Z,1.90
2019-05-30T01:42:49.736Z,1.80
2019-05-30T01:43:55.259Z,1.80
2019-05-30T01:45:02.229Z,2.00
2019-05-30T01:46:06.261Z,1.80
2019-05-30T01:47:11.783Z,1.90
2019-05-30T01:48:17.290Z,1.90
2019-05-30T01:49:22.805Z,1.70
2019-05-30T01:50:28.318Z,1.90
2019-05-30T01:51:33.825Z,2.00
2019-05-30T01:52:39.335Z,1.90
2019-05-30T01:53:44.866Z,1.90
2019-05-30T01:54:50.363Z,1.80
2019-05-30T01:55:55.874Z,2.00
2019-05-30T01:57:02.530Z,1.90
2019-05-30T01:58:07.242Z,1.90
2019-05-30T01:59:12.415Z,1.90
2019-05-30T02:00:21.151Z,1.90
2019-05-30T02:01:25.441Z,1.90
2019-05-30T02:02:28.945Z,1.90
2019-05-30T02:03:34.456Z,1.80
2019-05-30T02:04:39.970Z,1.90
2019-05-30T02:05:45.487Z,1.90
2019-05-30T02:06:50.998Z,1.90
2019-05-30T02:07:56.526Z,1.80
2019-05-30T02:09:03.010Z,1.80
2019-05-30T02:10:07.537Z,1.80
2019-05-30T02:11:13.051Z,1.90
2019-05-30T02:12:18.561Z,1.70
2019-05-30T02:13:24.077Z,2.00
2019-05-30T02:14:29.589Z,1.90
2019-05-30T02:15:35.098Z,1.90
2019-05-30T02:16:40.609Z,2.00
2019-05-30T02:17:46.155Z,1.90
2019-05-30T02:18:51.634Z,1.80
2019-05-30T02:19:57.158Z,1.90
2019-05-30T02:21:03.710Z,1.90
2019-05-30T02:22:08.188Z,1.90
2019-05-30T02:23:13.689Z,2.10
2019-05-30T02:24:19.197Z,1.90
2019-05-30T02:25:24.714Z,2.10
2019-05-30T02:26:30.224Z,2.00
2019-05-30T02:27:35.737Z,2.20
2019-05-30T02:28:41.251Z,2.30
2019-05-30T02:29:46.757Z,2.00
2019-05-30T02:30:52.272Z,2.10
2019-05-30T02:31:57.787Z,2.10
2019-05-30T02:33:05.161Z,2.20
2019-05-30T02:34:10.119Z,2.10
2019-05-30T02:35:14.325Z,2.20
2019-05-30T02:36:19.842Z,2.10
2019-05-30T02:37:25.347Z,2.30
2019-05-30T02:38:30.861Z,2.10
2019-05-30T02:39:36.375Z,1.90
2019-05-30T02:40:41.946Z,2.10
2019-05-30T02:41:47.398Z,2.10
2019-05-30T02:42:52.920Z,2.20
2019-05-30T02:43:58.421Z,2.00
2019-05-30T02:45:05.494Z,2.20
2019-05-30T02:46:10.612Z,2.10
2019-05-30T02:47:14.982Z,2.40
2019-05-30T02:48:20.463Z,2.30
2019-05-30T02:49:25.996Z,2.50
2019-05-30T02:50:31.499Z,2.20
2019-05-30T02:51:37.004Z,2.20
2019-05-30T02:52:42.530Z,2.30
2019-05-30T02:53:48.031Z,2.10
2019-05-30T02:54:53.551Z,1.90
2019-05-30T02:55:59.061Z,2.20
2019-05-30T02:57:05.548Z,2.10
2019-05-30T02:58:10.503Z,2.30
2019-05-30T02:59:15.589Z,2.30
2019-05-30T03:00:21.102Z,2.00
2019-05-30T03:01:26.623Z,2.10
2019-05-30T03:02:32.133Z,2.30
2019-05-30T03:03:37.645Z,2.10
2019-05-30T03:04:43.154Z,2.30
2019-05-30T03:05:48.672Z,2.00
2019-05-30T03:06:54.181Z,2.10
2019-05-30T03:08:01.780Z,2.10
2019-05-30T03:09:06.356Z,2.10
2019-05-30T03:10:14.668Z,2.10
2019-05-30T03:11:16.238Z,2.10
2019-05-30T03:12:21.747Z,2.10
2019-05-30T03:13:27.254Z,2.30
2019-05-30T03:14:32.771Z,2.20
2019-05-30T03:15:38.282Z,2.20
2019-05-30T03:16:43.788Z,2.30
2019-05-30T03:17:49.316Z,2.20
2019-05-30T03:18:54.819Z,2.20
2019-05-30T03:20:02.633Z,2.30
2019-05-30T03:21:08.160Z,2.30
2019-05-30T03:22:13.495Z,2.30
2019-05-30T03:23:16.868Z,2.20
2019-05-30T03:24:22.380Z,2.20
2019-05-30T03:25:27.904Z,2.20
2019-05-30T03:26:33.415Z,2.40
2019-05-30T03:27:38.931Z,2.40
2019-05-30T03:28:44.434Z,2.30
2019-05-30T03:29:49.937Z,2.40
2019-05-30T03:30:55.450Z,2.40
2019-05-30T03:32:45.036Z,2.40
2019-05-30T03:33:19.205Z,2.50
2019-05-30T03:34:22.793Z,2.50
2019-05-30T03:35:26.813Z,2.30
2019-05-30T03:36:29.795Z,2.30
2019-05-30T03:37:30.563Z,2.40
2019-05-30T03:38:34.055Z,2.30
2019-05-30T03:39:39.549Z,2.30
2019-05-30T03:40:45.068Z,2.40
2019-05-30T03:41:50.574Z,2.40
2019-05-30T03:42:56.087Z,2.20
2019-05-30T03:44:01.608Z,2.40
2019-05-30T03:45:10.724Z,2.20
2019-05-30T03:46:14.470Z,2.10
2019-05-30T03:47:18.135Z,2.40
2019-05-30T03:48:23.741Z,2.30
2019-05-30T03:49:29.163Z,2.40
2019-05-30T03:50:34.682Z,2.50
2019-05-30T03:51:40.182Z,2.40
2019-05-30T03:52:45.712Z,2.30
2019-05-30T03:53:51.213Z,2.40
2019-05-30T03:54:56.736Z,2.20
2019-05-30T03:56:02.234Z,2.50
2019-05-30T03:57:09.007Z,2.40
2019-05-30T03:58:14.319Z,2.20
2019-05-30T03:59:18.779Z,2.10
2019-05-30T04:00:24.298Z,2.10
2019-05-30T04:01:29.798Z,2.30
2019-05-30T04:02:55.204Z,2.30
2019-05-30T04:03:40.831Z,2.40
2019-05-30T04:04:46.349Z,2.20
2019-05-30T04:05:51.853Z,2.20
2019-05-30T04:06:57.360Z,2.40
2019-05-30T04:08:02.894Z,2.30
2019-05-30T04:09:09.932Z,2.40
2019-05-30T04:10:15.718Z,2.40
2019-05-30T04:11:19.825Z,2.20
2019-05-30T04:12:24.927Z,2.30
2019-05-30T04:13:30.443Z,2.50
2019-05-30T04:14:35.952Z,2.30
2019-05-30T04:15:41.460Z,2.20
2019-05-30T04:16:46.984Z,2.30
2019-05-30T04:17:52.484Z,2.30
2019-05-30T04:18:58.005Z,2.40
2019-05-30T04:20:03.515Z,2.10
2019-05-30T04:21:10.842Z,2.40
2019-05-30T04:22:15.524Z,2.40
2019-05-30T04:23:20.059Z,2.50
2019-05-30T04:24:25.564Z,2.30
2019-05-30T04:25:31.076Z,2.50
2019-05-30T04:26:36.593Z,2.10
2019-05-30T04:27:42.107Z,2.00
2019-05-30T04:28:47.615Z,2.30
2019-05-30T04:29:53.132Z,2.30
2019-05-30T04:30:58.642Z,2.30
2019-05-30T04:32:04.164Z,2.10
2019-05-30T04:33:19.268Z,2.20
2019-05-30T04:34:16.856Z,2.40
2019-05-30T04:35:20.718Z,2.40
2019-05-30T04:36:26.201Z,2.20
2019-05-30T04:37:31.714Z,2.40
2019-05-30T04:38:37.231Z,2.40
2019-05-30T04:39:42.740Z,2.50
2019-05-30T04:40:48.254Z,2.50
2019-05-30T04:41:53.766Z,2.50
2019-05-30T04:42:59.293Z,2.60
2019-05-30T04:44:04.802Z,2.20
2019-05-30T04:45:11.819Z,2.70
2019-05-30T04:46:17.260Z,2.50
2019-05-30T04:47:21.354Z,2.30
2019-05-30T04:48:26.847Z,2.30
2019-05-30T04:49:32.363Z,2.50
2019-05-30T04:50:37.869Z,2.40
2019-05-30T04:51:43.399Z,2.40
2019-05-30T04:52:48.896Z,2.20
2019-05-30T04:53:54.410Z,2.70
2019-05-30T04:54:59.936Z,2.30
2019-05-30T04:56:05.440Z,2.30
2019-05-30T04:57:12.602Z,2.20
2019-05-30T04:58:17.955Z,2.50
2019-05-30T04:59:22.272Z,2.30
2019-05-30T05:00:27.493Z,2.50
2019-05-30T05:01:33.001Z,2.40
2019-05-30T05:02:38.515Z,2.50
2019-05-30T05:03:46.521Z,2.40
2019-05-30T05:04:49.542Z,2.40
2019-05-30T05:05:55.065Z,2.30
2019-05-30T05:07:00.563Z,2.30
2019-05-30T05:08:06.076Z,2.40
2019-05-30T05:09:12.049Z,2.40
2019-05-30T05:10:18.233Z,2.30
2019-05-30T05:11:24.995Z,2.50
2019-05-30T05:12:28.136Z,2.40
2019-05-30T05:13:33.651Z,2.40
2019-05-30T05:14:39.152Z,2.30
2019-05-30T05:15:44.670Z,2.70
2019-05-30T05:16:50.178Z,2.60
2019-05-30T05:17:55.687Z,2.40
2019-05-30T05:19:01.213Z,2.40
2019-05-30T05:20:06.725Z,2.40
2019-05-30T05:21:12.836Z,2.30
2019-05-30T05:22:19.034Z,2.50
2019-05-30T05:23:23.636Z,2.60
2019-05-30T05:24:28.782Z,2.40
2019-05-30T05:25:34.298Z,2.30
2019-05-30T05:26:39.789Z,2.50
2019-05-30T05:27:45.310Z,2.40
2019-05-30T05:28:50.823Z,2.50
2019-05-30T05:29:56.338Z,2.40
2019-05-30T05:31:01.994Z,2.30
2019-05-30T05:32:07.368Z,2.60
2019-05-30T05:33:12.874Z,2.60
2019-05-30T05:34:18.613Z,2.30
2019-05-30T05:35:25.019Z,2.60
2019-05-30T05:36:29.407Z,2.50
2019-05-30T05:37:34.922Z,2.30
2019-05-30T05:38:40.439Z,2.30
2019-05-30T05:39:45.953Z,2.70
2019-05-30T05:40:51.462Z,2.20
2019-05-30T05:41:56.983Z,2.30
2019-05-30T05:43:02.492Z,2.50
2019-05-30T05:44:07.996Z,2.60
2019-05-30T05:45:13.514Z,2.30
2019-05-30T05:46:19.028Z,2.30
2019-05-30T05:47:24.642Z,2.40
2019-05-30T05:48:30.055Z,2.20
2019-05-30T05:49:35.563Z,2.50
2019-05-30T05:50:41.087Z,2.60
2019-05-30T05:51:46.596Z,2.60
2019-05-30T05:52:52.108Z,2.50
2019-05-30T05:53:57.634Z,2.40
2019-05-30T05:55:03.138Z,2.40
2019-05-30T05:56:08.641Z,2.40
2019-05-30T05:57:14.162Z,2.30
2019-05-30T05:58:20.792Z,2.50
2019-05-30T05:59:25.278Z,2.60
2019-05-30T06:00:30.709Z,2.30
2019-05-30T06:01:36.223Z,2.50
2019-05-30T06:02:41.733Z,2.30
2019-05-30T06:03:47.234Z,2.40
2019-05-30T06:04:52.752Z,2.70
2019-05-30T06:05:58.266Z,2.30
2019-05-30T06:07:03.779Z,2.40
2019-05-30T06:08:09.291Z,2.50
2019-05-30T06:09:14.809Z,2.20
2019-05-30T06:10:21.639Z,2.30
2019-05-30T06:11:25.832Z,2.40
2019-05-30T06:12:31.349Z,2.20
2019-05-30T06:13:36.858Z,2.30
2019-05-30T06:14:42.371Z,2.10
2019-05-30T06:15:47.890Z,2.30
2019-05-30T06:16:55.728Z,2.10
2019-05-30T06:17:58.916Z,2.50
2019-05-30T06:19:04.432Z,2.10
2019-05-30T06:20:09.939Z,2.20
2019-05-30T06:21:15.449Z,2.30
2019-05-30T06:22:21.460Z,2.20
2019-05-30T06:23:27.675Z,2.20
2019-05-30T06:24:32.001Z,2.30
2019-05-30T06:25:37.511Z,2.30
2019-05-30T06:26:43.023Z,2.10
2019-05-30T06:27:48.536Z,2.30
2019-05-30T06:28:54.048Z,2.10
2019-05-30T06:29:59.604Z,2.20
2019-05-30T06:31:05.080Z,2.20
2019-05-30T06:32:10.584Z,2.20
2019-05-30T06:33:16.103Z,2.10
2019-05-30T06:34:34.874Z,2.40
2019-05-30T06:35:27.511Z,2.10
2019-05-30T06:36:32.651Z,2.20
2019-05-30T06:37:38.158Z,1.90
2019-05-30T06:38:43.667Z,2.10
2019-05-30T06:39:49.190Z,2.00
2019-05-30T06:40:54.696Z,2.20
2019-05-30T06:42:00.208Z,1.90
2019-05-30T06:43:05.734Z,2.00
2019-05-30T06:44:11.246Z,2.00
2019-05-30T06:45:16.753Z,2.00
2019-05-30T06:46:22.263Z,2.00
2019-05-30T06:47:28.479Z,2.10
2019-05-30T06:48:33.315Z,2.00
2019-05-30T06:49:38.826Z,2.10
2019-05-30T06:50:44.313Z,2.00
2019-05-30T06:51:49.842Z,2.00
2019-05-30T06:52:55.352Z,2.00
2019-05-30T06:54:00.868Z,2.00
2019-05-30T06:55:06.371Z,2.10
2019-05-30T06:56:11.889Z,1.90
2019-05-30T06:57:17.413Z,1.90
2019-05-30T06:58:40.105Z,2.00
2019-05-30T06:59:29.657Z,1.80
2019-05-30T07:00:33.940Z,2.00
2019-05-30T07:01:39.448Z,1.80
2019-05-30T07:02:45.006Z,2.00
2019-05-30T07:03:50.615Z,2.00
2019-05-30T07:04:56.695Z,1.70
2019-05-30T07:06:02.010Z,1.90
2019-05-30T07:07:07.227Z,2.10
2019-05-30T07:08:12.539Z,1.90
2019-05-30T07:09:18.048Z,2.00
2019-05-30T07:10:24.784Z,2.00
2019-05-30T07:11:29.372Z,2.10
2019-05-30T07:12:34.597Z,1.90
2019-05-30T07:13:40.116Z,2.10
2019-05-30T07:14:45.619Z,1.90
2019-05-30T07:15:51.135Z,1.90
2019-05-30T07:16:56.639Z,1.80
2019-05-30T07:18:02.164Z,1.90
2019-05-30T07:19:07.666Z,2.00
2019-05-30T07:20:13.189Z,1.80
2019-05-30T07:21:18.702Z,2.10
2019-05-30T07:22:24.210Z,2.00
2019-05-30T07:23:30.187Z,1.90
2019-05-30T07:24:35.238Z,1.90
2019-05-30T07:25:40.778Z,2.00
2019-05-30T07:26:46.265Z,1.80
2019-05-30T07:27:51.780Z,1.80
2019-05-30T07:29:00.540Z,1.80
2019-05-30T07:30:02.818Z,1.90
2019-05-30T07:31:08.331Z,2.10
2019-05-30T07:32:13.837Z,1.80
2019-05-30T07:33:19.348Z,1.90
2019-05-30T07:34:25.898Z,1.70
2019-05-30T07:35:30.376Z,1.90
2019-05-30T07:36:35.889Z,2.00
2019-05-30T07:37:41.400Z,1.90
2019-05-30T07:38:46.926Z,2.00
2019-05-30T07:39:52.530Z,2.00
2019-05-30T07:40:57.950Z,1.80
2019-05-30T07:42:06.596Z,1.80
2019-05-30T07:43:08.970Z,2.00
2019-05-30T07:44:14.484Z,1.90
2019-05-30T07:45:20.017Z,1.90
2019-05-30T07:46:26.571Z,2.00
2019-05-30T07:47:32.131Z,2.00
2019-05-30T07:48:36.539Z,2.00
2019-05-30T07:49:42.054Z,1.90
2019-05-30T07:50:47.563Z,1.90
2019-05-30T07:51:53.074Z,1.90
2019-05-30T07:52:58.591Z,2.00
2019-05-30T07:54:04.110Z,2.00
2019-05-30T07:55:09.618Z,2.10
2019-05-30T07:56:15.146Z,1.90
2019-05-30T07:57:20.649Z,2.10
2019-05-30T07:58:27.016Z,2.00
2019-05-30T07:59:32.461Z,2.10
2019-05-30T08:00:37.640Z,2.30
2019-05-30T08:01:42.786Z,2.00
2019-05-30T08:02:48.221Z,2.10
2019-05-30T08:03:53.727Z,2.00
2019-05-30T08:04:59.289Z,2.20
2019-05-30T08:06:04.768Z,2.10
2019-05-30T08:07:10.271Z,2.10
2019-05-30T08:08:15.795Z,2.10
2019-05-30T08:09:21.302Z,2.10
2019-05-30T08:10:27.780Z,2.10
2019-05-30T08:11:32.902Z,2.10
2019-05-30T08:12:38.406Z,2.00
2019-05-30T08:13:43.364Z,2.20
2019-05-30T08:14:48.872Z,2.30
2019-05-30T08:15:54.386Z,2.30
2019-05-30T08:16:59.905Z,2.40
2019-05-30T08:18:05.409Z,2.00
2019-05-30T08:19:10.930Z,2.10
2019-05-30T08:20:16.451Z,2.10
2019-05-30T08:21:21.949Z,2.30
2019-05-30T08:22:27.926Z,2.00
2019-05-30T08:23:34.149Z,2.00
2019-05-30T08:24:38.980Z,2.40
2019-05-30T08:25:44.021Z,2.10
2019-05-30T08:26:49.521Z,2.20
2019-05-30T08:27:55.041Z,2.20
2019-05-30T08:29:00.550Z,2.10
2019-05-30T08:30:06.058Z,2.20
2019-05-30T08:31:11.607Z,2.30
2019-05-30T08:32:17.094Z,2.30
2019-05-30T08:33:22.608Z,2.40
2019-05-30T08:34:28.446Z,2.70
2019-05-30T08:35:43.599Z,2.50
2019-05-30T08:36:39.243Z,2.10
2019-05-30T08:37:44.662Z,2.20
2019-05-30T08:38:50.178Z,2.30
2019-05-30T08:39:55.686Z,2.40
2019-05-30T08:41:01.213Z,2.70
2019-05-30T08:42:06.723Z,2.50
2019-05-30T08:43:12.245Z,2.50
2019-05-30T08:44:17.750Z,2.30
2019-05-30T08:45:23.307Z,2.50
2019-05-30T08:46:30.147Z,2.40
2019-05-30T08:47:34.298Z,2.30
2019-05-30T08:48:40.401Z,2.60
2019-05-30T08:49:45.330Z,2.30
2019-05-30T08:50:50.836Z,2.30
2019-05-30T08:51:56.344Z,2.50
2019-05-30T08:53:01.858Z,2.30
2019-05-30T08:54:07.384Z,2.40
2019-05-30T08:55:12.889Z,2.40
2019-05-30T08:56:18.406Z,2.30
2019-05-30T08:57:23.925Z,2.30
2019-05-30T08:58:30.392Z,2.50
2019-05-30T08:59:34.948Z,2.30
2019-05-30T09:00:40.470Z,2.40
2019-05-30T09:01:47.101Z,2.60
2019-05-30T09:02:51.492Z,2.20
2019-05-30T09:03:57.006Z,2.30
2019-05-30T09:05:06.585Z,2.30
2019-05-30T09:06:08.036Z,2.40
2019-05-30T09:07:13.565Z,2.30
2019-05-30T09:08:19.060Z,2.30
2019-05-30T09:09:24.579Z,2.30
2019-05-30T09:10:30.085Z,2.40
2019-05-30T09:11:35.909Z,2.40
2019-05-30T09:12:45.180Z,2.40
2019-05-30T09:13:46.843Z,2.50
2019-05-30T09:14:52.152Z,2.30
2019-05-30T09:15:57.664Z,2.30
2019-05-30T09:17:03.170Z,2.40
2019-05-30T09:18:08.709Z,2.40
2019-05-30T09:19:14.202Z,2.30
2019-05-30T09:20:19.724Z,2.50
2019-05-30T09:21:25.236Z,2.10
2019-05-30T09:22:30.745Z,2.30
2019-05-30T09:23:38.287Z,2.40
2019-05-30T09:24:42.106Z,2.50
2019-05-30T09:25:49.367Z,2.20
2019-05-30T09:26:52.818Z,2.40
2019-05-30T09:27:58.347Z,2.40
2019-05-30T09:29:03.974Z,2.40
2019-05-30T09:30:09.364Z,2.90
2019-05-30T09:31:14.863Z,2.30
2019-05-30T09:32:20.395Z,2.40
2019-05-30T09:33:26.801Z,2.30
2019-05-30T09:34:31.415Z,2.50
2019-05-30T09:35:36.926Z,2.30
2019-05-30T09:36:42.742Z,2.50
2019-05-30T09:37:47.968Z,2.50
2019-05-30T09:38:53.492Z,2.40
2019-05-30T09:39:58.998Z,2.50
2019-05-30T09:41:04.500Z,2.40
2019-05-30T09:42:10.016Z,2.40
2019-05-30T09:43:15.537Z,2.60
2019-05-30T09:44:21.056Z,2.60
2019-05-30T09:45:26.567Z,2.50
2019-05-30T09:46:32.090Z,2.30
2019-05-30T09:47:38.311Z,2.60
2019-05-30T09:48:44.799Z,2.50
2019-05-30T09:49:48.648Z,2.60
2019-05-30T09:50:54.141Z,2.40
2019-05-30T09:51:59.661Z,2.70
2019-05-30T09:53:05.174Z,2.50
2019-05-30T09:54:10.687Z,2.50
2019-05-30T09:55:16.199Z,2.60
2019-05-30T09:56:21.715Z,2.50
2019-05-30T09:57:27.237Z,2.60
2019-05-30T09:58:32.752Z,2.50
2019-05-30T09:59:38.286Z,2.90
2019-05-30T10:00:45.466Z,2.70
2019-05-30T10:01:50.138Z,2.80
2019-05-30T10:02:54.802Z,2.40
2019-05-30T10:04:00.324Z,2.70
2019-05-30T10:05:05.834Z,2.70
2019-05-30T10:06:11.361Z,2.60
2019-05-30T10:07:16.877Z,2.70
2019-05-30T10:08:22.429Z,2.60
2019-05-30T10:09:28.814Z,2.80
2019-05-30T10:10:33.409Z,2.80
2019-05-30T10:11:38.936Z,3.00
2019-05-30T10:12:45.576Z,2.70
2019-05-30T10:13:51.212Z,2.90
2019-05-30T10:14:55.464Z,2.70
2019-05-30T10:16:01.019Z,2.70
2019-05-30T10:17:06.514Z,2.50
2019-05-30T10:18:12.015Z,2.60
2019-05-30T10:19:17.528Z,2.60
2019-05-30T10:20:23.049Z,2.60
2019-05-30T10:21:28.562Z,2.60
2019-05-30T10:22:34.068Z,2.70
2019-05-30T10:23:39.586Z,2.50
2019-05-30T10:24:46.304Z,2.70
2019-05-30T10:25:51.222Z,2.60
2019-05-30T10:26:57.300Z,2.80
2019-05-30T10:28:01.654Z,2.80
2019-05-30T10:29:07.161Z,2.70
2019-05-30T10:30:12.681Z,2.70
2019-05-30T10:31:18.192Z,2.90
2019-05-30T10:32:23.705Z,2.60
2019-05-30T10:33:29.247Z,2.70
2019-05-30T10:34:35.344Z,2.90
2019-05-30T10:35:40.263Z,3.10
2019-05-30T10:36:47.206Z,2.70
2019-05-30T10:37:51.283Z,2.90
2019-05-30T10:38:56.804Z,3.10
2019-05-30T10:40:02.328Z,3.00
2019-05-30T10:41:07.839Z,2.60
2019-05-30T10:42:13.343Z,2.90
2019-05-30T10:43:18.882Z,2.80
2019-05-30T10:44:24.380Z,2.80
2019-05-30T10:45:29.893Z,2.80
2019-05-30T10:46:35.416Z,2.60
2019-05-30T10:47:40.986Z,3.20
2019-05-30T10:48:47.834Z,3.00
2019-05-30T10:49:51.966Z,3.20
2019-05-30T10:50:57.466Z,3.30
2019-05-30T10:52:02.999Z,3.20
2019-05-30T10:53:08.511Z,3.20
2019-05-30T10:54:14.022Z,3.50
2019-05-30T10:55:19.533Z,3.40
2019-05-30T10:56:25.848Z,3.20
2019-05-30T10:57:30.562Z,3.40
2019-05-30T10:58:36.079Z,3.40
2019-05-30T10:59:41.591Z,3.30
2019-05-30T11:00:48.588Z,3.30
2019-05-30T11:01:53.041Z,3.50
2019-05-30T11:02:58.139Z,3.60
2019-05-30T11:04:03.661Z,3.60
2019-05-30T11:05:09.172Z,4.00
2019-05-30T11:06:14.705Z,3.80
2019-05-30T11:07:20.201Z,4.00
2019-05-30T11:08:25.729Z,4.00
2019-05-30T11:09:31.244Z,4.10
2019-05-30T11:10:36.751Z,4.40
2019-05-30T11:11:42.272Z,4.70
2019-05-30T11:12:48.323Z,4.20
2019-05-30T11:13:53.371Z,4.40
2019-05-30T11:14:58.804Z,4.10
2019-05-30T11:16:04.323Z,4.30
2019-05-30T11:17:09.838Z,4.40
2019-05-30T11:18:15.350Z,4.90
2019-05-30T11:19:20.868Z,4.80
2019-05-30T11:20:26.380Z,4.80
2019-05-30T11:21:31.899Z,4.80
2019-05-30T11:22:37.482Z,4.60
2019-05-30T11:23:42.940Z,4.90
2019-05-30T11:24:48.452Z,4.60
2019-05-30T11:25:54.864Z,4.70
2019-05-30T11:26:59.493Z,5.20
2019-05-30T11:28:04.991Z,4.80
2019-05-30T11:29:10.567Z,4.20
2019-05-30T11:30:16.859Z,4.40
2019-05-30T11:31:21.538Z,4.60
2019-05-30T11:32:27.054Z,4.50
2019-05-30T11:33:32.569Z,4.50
2019-05-30T11:34:38.082Z,4.50
2019-05-30T11:35:43.610Z,4.50
2019-05-30T11:36:49.111Z,4.40
2019-05-30T11:37:55.184Z,4.10
2019-05-30T11:39:00.138Z,4.20
2019-05-30T11:40:05.651Z,4.20
2019-05-30T11:41:11.168Z,4.30
2019-05-30T11:42:16.692Z,4.10
2019-05-30T11:43:22.221Z,4.20
2019-05-30T11:44:27.715Z,4.10
2019-05-30T11:45:33.241Z,4.00
2019-05-30T11:46:38.756Z,3.90
2019-05-30T11:47:44.867Z,4.00
2019-05-30T11:48:49.782Z,4.00
2019-05-30T11:49:55.755Z,4.00
2019-05-30T11:51:00.803Z,4.20
2019-05-30T11:52:06.322Z,4.10
2019-05-30T11:53:11.837Z,4.20
2019-05-30T11:54:17.361Z,4.10
2019-05-30T11:55:22.876Z,4.60
2019-05-30T11:56:28.386Z,4.20
2019-05-30T11:57:33.894Z,3.90
2019-05-30T11:58:39.410Z,4.20
2019-05-30T11:59:44.924Z,4.20
2019-05-30T12:00:50.445Z,4.10
2019-05-30T12:01:56.424Z,4.10
2019-05-30T12:03:01.480Z,4.20
2019-05-30T12:04:06.991Z,4.00
2019-05-30T12:05:12.502Z,3.90
2019-05-30T12:06:18.021Z,3.70
2019-05-30T12:07:35.881Z,4.20
2019-05-30T12:08:29.050Z,4.00
2019-05-30T12:09:34.569Z,3.90
2019-05-30T12:10:40.073Z,3.90
2019-05-30T12:11:45.593Z,3.80
2019-05-30T12:12:51.251Z,3.40
2019-05-30T12:13:57.411Z,4.20
2019-05-30T12:15:02.155Z,4.00
2019-05-30T12:16:07.661Z,3.40
2019-05-30T12:17:13.176Z,4.00
2019-05-30T12:18:18.708Z,3.90
2019-05-30T12:19:24.210Z,4.00
2019-05-30T12:20:29.720Z,3.70
2019-05-30T12:21:35.880Z,3.90
2019-05-30T12:22:40.746Z,3.60
2019-05-30T12:23:46.272Z,3.60
2019-05-30T12:24:51.789Z,3.90
2019-05-30T12:25:58.032Z,4.10
2019-05-30T12:27:02.812Z,4.20
2019-05-30T12:28:08.327Z,4.00
2019-05-30T12:29:13.832Z,3.80
2019-05-30T12:30:19.369Z,3.80
2019-05-30T12:31:24.866Z,4.10
2019-05-30T12:32:30.393Z,4.30
2019-05-30T12:33:35.911Z,4.20
2019-05-30T12:34:41.426Z,3.80
2019-05-30T12:35:47.899Z,3.80
2019-05-30T12:36:52.453Z,3.90
2019-05-30T12:38:01.602Z,3.80
2019-05-30T12:39:03.475Z,3.70
2019-05-30T12:40:09.199Z,3.90
2019-05-30T12:41:14.522Z,3.50
2019-05-30T12:42:20.038Z,3.60
2019-05-30T12:43:25.534Z,3.50
2019-05-30T12:44:31.051Z,3.30
2019-05-30T12:45:36.576Z,3.60
2019-05-30T12:46:42.086Z,3.40
2019-05-30T12:47:47.600Z,3.50
2019-05-30T12:48:53.319Z,3.50
2019-05-30T12:49:59.335Z,3.60
2019-05-30T12:51:04.142Z,3.80
2019-05-30T12:52:09.662Z,3.60
2019-05-30T12:53:15.173Z,3.80
2019-05-30T12:54:20.713Z,3.60
2019-05-30T12:55:26.199Z,3.50
2019-05-30T12:56:31.716Z,3.50
2019-05-30T12:57:37.240Z,3.70
2019-05-30T12:58:42.752Z,3.40
2019-05-30T12:59:48.279Z,3.60
2019-05-30T13:00:54.609Z,3.70
2019-05-30T13:01:59.313Z,3.70
2019-05-30T13:03:04.814Z,3.60
2019-05-30T13:04:10.326Z,3.50
2019-05-30T13:05:15.852Z,3.60
2019-05-30T13:06:21.367Z,3.50
2019-05-30T13:07:26.886Z,3.90
2019-05-30T13:08:32.392Z,3.20
2019-05-30T13:09:37.904Z,3.70
2019-05-30T13:10:43.421Z,3.50
2019-05-30T13:11:48.938Z,3.40
2019-05-30T13:12:55.558Z,3.50
2019-05-30T13:14:00.663Z,3.60
2019-05-30T13:15:05.837Z,3.50
2019-05-30T13:16:10.996Z,3.60
2019-05-30T13:17:16.516Z,3.30
2019-05-30T13:18:22.036Z,3.80
2019-05-30T13:19:27.549Z,3.70
2019-05-30T13:20:33.079Z,3.50
2019-05-30T13:21:38.574Z,3.70
2019-05-30T13:22:44.082Z,3.40
2019-05-30T13:23:49.600Z,3.70
2019-05-30T13:24:55.478Z,3.90
2019-05-30T13:26:01.903Z,3.90
2019-05-30T13:27:06.145Z,3.60
2019-05-30T13:28:11.665Z,3.50
2019-05-30T13:29:17.183Z,3.50
2019-05-30T13:30:22.693Z,3.50
2019-05-30T13:31:28.220Z,3.40
2019-05-30T13:32:33.728Z,3.50
2019-05-30T13:33:39.246Z,3.40
2019-05-30T13:34:44.768Z,3.30
2019-05-30T13:35:50.280Z,3.20
2019-05-30T13:36:56.874Z,3.20
2019-05-30T13:38:01.492Z,3.40
2019-05-30T13:39:07.480Z,3.20
2019-05-30T13:40:24.139Z,3.10
2019-05-30T13:41:17.865Z,3.20
2019-05-30T13:42:23.364Z,3.00
2019-05-30T13:43:28.898Z,3.20
2019-05-30T13:44:34.399Z,2.80
2019-05-30T13:45:39.924Z,3.10
2019-05-30T13:46:45.441Z,2.90
2019-05-30T13:47:50.950Z,3.30
2019-05-30T13:48:56.473Z,2.90
2019-05-30T13:50:03.093Z,3.10
2019-05-30T13:51:07.485Z,3.00
2019-05-30T13:52:12.998Z,2.70
2019-05-30T13:53:18.511Z,3.10
2019-05-30T13:54:24.041Z,3.20
2019-05-30T13:55:29.552Z,3.00
2019-05-30T13:56:35.066Z,2.90
2019-05-30T13:57:40.581Z,2.90
2019-05-30T13:58:46.138Z,3.00
2019-05-30T13:59:51.612Z,3.20
2019-05-30T14:00:57.131Z,2.80
2019-05-30T14:02:03.877Z,2.80
2019-05-30T14:03:08.253Z,2.90
2019-05-30T14:04:13.682Z,3.10
2019-05-30T14:05:19.196Z,2.90
2019-05-30T14:06:24.699Z,3.10
2019-05-30T14:07:30.222Z,3.10
2019-05-30T14:08:41.746Z,3.10
2019-05-30T14:09:41.241Z,3.10
2019-05-30T14:10:46.803Z,3.40
2019-05-30T14:11:52.291Z,2.90
2019-05-30T14:12:57.797Z,3.00
2019-05-30T14:14:03.312Z,3.70
2019-05-30T14:15:10.430Z,3.40
2019-05-30T14:16:14.336Z,3.90
2019-05-30T14:17:19.856Z,3.50
2019-05-30T14:18:25.376Z,3.90
2019-05-30T14:19:30.882Z,4.20
2019-05-30T14:20:36.420Z,4.00
2019-05-30T14:21:41.923Z,4.00
2019-05-30T14:22:47.455Z,3.90
2019-05-30T14:23:52.954Z,3.90
2019-05-30T14:24:58.473Z,3.70
2019-05-30T14:26:05.201Z,4.00
2019-05-30T14:27:09.640Z,4.50
2019-05-30T14:28:15.009Z,4.20
2019-05-30T14:29:20.532Z,4.40
2019-05-30T14:30:26.041Z,4.50
2019-05-30T14:31:31.556Z,4.40